ELY5109 LLBG-UGTB
Flight info
| Callsign | ELY5109 |
|---|---|
| Flight time | N/A |
| Altitude | 36000 |
| Route | SUVAS N128 TEZAK L324 SAFTA DCT TOMBI UA16 AYT UW77 HALIL UT54 SIV UW706 TBN UN61 NOLGA N61 LAGAS |
| Aircraft | B738/M-SDE2E3FGHIRWXY/LB1 |
Departure
| Time | N/A |
|---|---|
| Airport | Ben Gurion International Airport (LLBG) |
Arrival
| Time | 2026-04-23 19:09 |
|---|---|
| Airport | Tbilisi International Airport (UGTB) |
| Time | Latitude | Longitude | Altitude | Speed | Heading |
|---|---|---|---|---|---|
| 2026-04-23 18:31 | 41.03315 | 40.04890 | 37020 ft | 506 kts | 80° |
| 2026-04-23 18:32 | 41.03978 | 40.09470 | 37017 ft | 506 kts | 79° |
| 2026-04-23 18:32 | 41.05327 | 40.18627 | 37021 ft | 507 kts | 79° |
| 2026-04-23 18:33 | 41.06683 | 40.27801 | 37016 ft | 508 kts | 79° |
| 2026-04-23 18:33 | 41.08034 | 40.36994 | 37017 ft | 508 kts | 80° |
| 2026-04-23 18:34 | 41.09373 | 40.46185 | 37014 ft | 508 kts | 80° |
| 2026-04-23 18:34 | 41.10705 | 40.55383 | 37003 ft | 508 kts | 80° |
| 2026-04-23 18:35 | 41.12027 | 40.64571 | 36999 ft | 507 kts | 80° |
| 2026-04-23 18:35 | 41.13340 | 40.73751 | 36995 ft | 506 kts | 80° |
| 2026-04-23 18:36 | 41.14644 | 40.82923 | 36999 ft | 506 kts | 80° |
| 2026-04-23 18:36 | 41.15941 | 40.92093 | 36987 ft | 505 kts | 80° |
| 2026-04-23 18:37 | 41.17228 | 41.01256 | 36993 ft | 505 kts | 81° |
| 2026-04-23 18:37 | 41.18506 | 41.10407 | 36995 ft | 504 kts | 81° |
| 2026-04-23 18:38 | 41.19779 | 41.19552 | 36984 ft | 503 kts | 81° |
| 2026-04-23 18:38 | 41.21039 | 41.28683 | 36964 ft | 503 kts | 81° |
| 2026-04-23 18:39 | 41.22287 | 41.37795 | 36954 ft | 500 kts | 81° |
| 2026-04-23 18:39 | 41.23523 | 41.46883 | 36974 ft | 500 kts | 81° |
| 2026-04-23 18:40 | 41.24756 | 41.55980 | 36961 ft | 500 kts | 81° |
| 2026-04-23 18:40 | 41.25980 | 41.65070 | 36956 ft | 500 kts | 81° |
| 2026-04-23 18:41 | 41.27201 | 41.74192 | 36955 ft | 501 kts | 81° |
| 2026-04-23 18:41 | 41.28407 | 41.83271 | 36975 ft | 503 kts | 81° |
| 2026-04-23 18:42 | 41.29620 | 41.92449 | 36960 ft | 505 kts | 81° |
| 2026-04-23 18:42 | 41.30828 | 42.01681 | 36906 ft | 508 kts | 82° |
| 2026-04-23 18:42 | 41.31428 | 42.06348 | 36305 ft | 515 kts | 82° |
| 2026-04-23 18:43 | 41.32026 | 42.11026 | 35790 ft | 512 kts | 82° |
| 2026-04-23 18:43 | 41.32623 | 42.15710 | 35191 ft | 512 kts | 82° |
| 2026-04-23 18:43 | 41.33215 | 42.20360 | 34757 ft | 508 kts | 82° |
| 2026-04-23 18:43 | 41.33803 | 42.24982 | 34317 ft | 505 kts | 83° |
| 2026-04-23 18:44 | 41.34384 | 42.29574 | 33858 ft | 503 kts | 82° |
| 2026-04-23 18:44 | 41.34960 | 42.34156 | 33340 ft | 500 kts | 82° |
| 2026-04-23 18:44 | 41.35532 | 42.38708 | 32889 ft | 497 kts | 82° |
| 2026-04-23 18:44 | 41.36098 | 42.43228 | 32438 ft | 494 kts | 82° |
| 2026-04-23 18:45 | 41.36659 | 42.47718 | 32018 ft | 490 kts | 82° |
| 2026-04-23 18:45 | 41.37216 | 42.52186 | 31601 ft | 488 kts | 82° |
| 2026-04-23 18:45 | 41.37767 | 42.56625 | 31161 ft | 485 kts | 82° |
| 2026-04-23 18:45 | 41.38313 | 42.61047 | 30736 ft | 482 kts | 82° |
| 2026-04-23 18:46 | 41.38855 | 42.65441 | 30333 ft | 479 kts | 82° |
| 2026-04-23 18:46 | 41.39391 | 42.69807 | 29912 ft | 477 kts | 82° |
| 2026-04-23 18:46 | 41.39923 | 42.74156 | 29431 ft | 474 kts | 82° |
| 2026-04-23 18:46 | 41.40451 | 42.78475 | 28971 ft | 470 kts | 82° |
| 2026-04-23 18:47 | 41.40972 | 42.82759 | 28525 ft | 467 kts | 82° |
| 2026-04-23 18:47 | 41.41488 | 42.87012 | 28119 ft | 463 kts | 82° |
| 2026-04-23 18:47 | 41.41998 | 42.91228 | 27690 ft | 460 kts | 82° |
| 2026-04-23 18:47 | 41.42503 | 42.95417 | 27247 ft | 456 kts | 82° |
| 2026-04-23 18:48 | 41.43003 | 42.99569 | 26846 ft | 453 kts | 82° |
| 2026-04-23 18:48 | 41.43499 | 43.03699 | 26448 ft | 450 kts | 82° |
| 2026-04-23 18:48 | 41.43992 | 43.07802 | 26026 ft | 446 kts | 82° |
| 2026-04-23 18:48 | 41.44479 | 43.11869 | 25625 ft | 442 kts | 82° |
| 2026-04-23 18:49 | 41.44959 | 43.15898 | 25226 ft | 439 kts | 82° |
| 2026-04-23 18:49 | 41.45436 | 43.19906 | 24835 ft | 436 kts | 82° |
| 2026-04-23 18:49 | 41.45906 | 43.23884 | 24417 ft | 433 kts | 82° |
| 2026-04-23 18:49 | 41.46373 | 43.27836 | 24031 ft | 430 kts | 82° |
| 2026-04-23 18:50 | 41.46680 | 43.30444 | 23748 ft | 430 kts | 82° |
| 2026-04-23 18:50 | 41.47299 | 43.35702 | 23160 ft | 428 kts | 82° |
| 2026-04-23 18:50 | 41.47755 | 43.39602 | 22701 ft | 425 kts | 82° |
| 2026-04-23 18:50 | 41.48208 | 43.43477 | 22311 ft | 421 kts | 83° |
| 2026-04-23 18:51 | 41.48656 | 43.47324 | 21899 ft | 418 kts | 83° |
| 2026-04-23 18:51 | 41.49099 | 43.51139 | 21505 ft | 415 kts | 83° |
| 2026-04-23 18:51 | 41.49537 | 43.54928 | 21103 ft | 412 kts | 83° |
| 2026-04-23 18:51 | 41.49971 | 43.58691 | 20725 ft | 409 kts | 83° |
| 2026-04-23 18:52 | 41.50395 | 43.62380 | 20326 ft | 407 kts | 83° |
| 2026-04-23 18:52 | 41.50821 | 43.66098 | 19954 ft | 404 kts | 83° |
| 2026-04-23 18:52 | 41.51245 | 43.69799 | 19562 ft | 402 kts | 83° |
| 2026-04-23 18:52 | 41.51664 | 43.73480 | 19177 ft | 400 kts | 83° |
| 2026-04-23 18:53 | 41.52079 | 43.77135 | 18788 ft | 397 kts | 83° |
| 2026-04-23 18:53 | 41.52490 | 43.80759 | 18424 ft | 394 kts | 83° |
| 2026-04-23 18:53 | 41.52898 | 43.84371 | 18019 ft | 393 kts | 83° |
| 2026-04-23 18:53 | 41.53304 | 43.87957 | 17576 ft | 389 kts | 83° |
| 2026-04-23 18:54 | 41.53703 | 43.91511 | 17208 ft | 385 kts | 83° |
| 2026-04-23 18:54 | 41.54097 | 43.95032 | 16821 ft | 382 kts | 83° |
| 2026-04-23 18:54 | 41.54486 | 43.98515 | 16463 ft | 378 kts | 83° |
| 2026-04-23 18:54 | 41.54871 | 44.01972 | 16079 ft | 375 kts | 84° |
| 2026-04-23 18:55 | 41.55252 | 44.05401 | 15724 ft | 372 kts | 84° |
| 2026-04-23 18:55 | 41.55628 | 44.08798 | 15369 ft | 368 kts | 84° |
| 2026-04-23 18:55 | 41.56001 | 44.12168 | 15010 ft | 365 kts | 84° |
| 2026-04-23 18:55 | 41.56370 | 44.15516 | 14669 ft | 364 kts | 84° |
| 2026-04-23 18:56 | 41.56617 | 44.17768 | 14440 ft | 362 kts | 84° |
| 2026-04-23 18:56 | 41.57092 | 44.22165 | 13959 ft | 360 kts | 86° |
| 2026-04-23 18:56 | 41.56990 | 44.25424 | 13791 ft | 344 kts | 104° |
| 2026-04-23 18:56 | 41.56555 | 44.28547 | 13500 ft | 342 kts | 105° |
| 2026-04-23 18:57 | 41.56115 | 44.31663 | 13155 ft | 340 kts | 104° |
| 2026-04-23 18:57 | 41.55690 | 44.34753 | 12853 ft | 335 kts | 104° |
| 2026-04-23 18:57 | 41.55284 | 44.37790 | 12602 ft | 331 kts | 104° |
| 2026-04-23 18:57 | 41.54885 | 44.40807 | 12272 ft | 329 kts | 104° |
| 2026-04-23 18:58 | 41.54489 | 44.43808 | 11934 ft | 328 kts | 104° |
| 2026-04-23 18:58 | 41.54096 | 44.46797 | 11606 ft | 326 kts | 103° |
| 2026-04-23 18:58 | 41.53706 | 44.49766 | 11289 ft | 324 kts | 103° |
| 2026-04-23 18:58 | 41.53449 | 44.51725 | 11064 ft | 323 kts | 103° |
| 2026-04-23 18:59 | 41.53063 | 44.54669 | 10738 ft | 321 kts | 104° |
| 2026-04-23 18:59 | 41.52677 | 44.57594 | 10412 ft | 320 kts | 103° |
| 2026-04-23 18:59 | 41.52294 | 44.60498 | 10223 ft | 314 kts | 104° |
| 2026-04-23 18:59 | 41.51920 | 44.63336 | 10066 ft | 307 kts | 104° |
| 2026-04-23 19:00 | 41.51552 | 44.66117 | 9840 ft | 303 kts | 104° |
| 2026-04-23 19:00 | 41.51183 | 44.68885 | 9538 ft | 302 kts | 104° |
| 2026-04-23 19:00 | 41.50814 | 44.71634 | 9236 ft | 301 kts | 104° |
| 2026-04-23 19:00 | 41.50445 | 44.74377 | 8924 ft | 299 kts | 104° |
| 2026-04-23 19:01 | 41.50078 | 44.77101 | 8625 ft | 298 kts | 104° |
| 2026-04-23 19:01 | 41.49713 | 44.79809 | 8331 ft | 296 kts | 104° |
| 2026-04-23 19:01 | 41.49349 | 44.82504 | 8033 ft | 295 kts | 104° |
| 2026-04-23 19:01 | 41.48985 | 44.85192 | 7742 ft | 294 kts | 104° |
| 2026-04-23 19:02 | 41.48622 | 44.87871 | 7439 ft | 293 kts | 103° |
| 2026-04-23 19:02 | 41.48260 | 44.90540 | 7143 ft | 292 kts | 103° |
| 2026-04-23 19:02 | 41.47898 | 44.93199 | 6857 ft | 291 kts | 103° |
| 2026-04-23 19:02 | 41.47541 | 44.95829 | 6537 ft | 285 kts | 103° |
| 2026-04-23 19:03 | 41.47196 | 44.98372 | 6379 ft | 271 kts | 103° |
| 2026-04-23 19:03 | 41.46868 | 45.00777 | 6254 ft | 256 kts | 103° |
| 2026-04-23 19:03 | 41.46564 | 45.03018 | 6150 ft | 236 kts | 104° |
| 2026-04-23 19:03 | 41.46374 | 45.05116 | 6005 ft | 224 kts | 86° |
| 2026-04-23 19:04 | 41.46913 | 45.07008 | 5880 ft | 217 kts | 57° |
| 2026-04-23 19:04 | 41.47880 | 45.08523 | 5678 ft | 211 kts | 49° |
| 2026-04-23 19:04 | 41.48885 | 45.09911 | 5458 ft | 205 kts | 49° |
| 2026-04-23 19:04 | 41.49863 | 45.11261 | 5229 ft | 200 kts | 49° |
| 2026-04-23 19:05 | 41.50904 | 45.12421 | 5103 ft | 192 kts | 24° |
| 2026-04-23 19:05 | 41.52220 | 45.12429 | 5070 ft | 198 kts | 336° |
| 2026-04-23 19:05 | 41.53447 | 45.11499 | 4847 ft | 208 kts | 327° |
| 2026-04-23 19:05 | 41.54630 | 45.10391 | 4575 ft | 207 kts | 323° |
| 2026-04-23 19:06 | 41.55761 | 45.09209 | 4298 ft | 205 kts | 319° |
| 2026-04-23 19:06 | 41.56812 | 45.07932 | 4031 ft | 203 kts | 316° |
| 2026-04-23 19:06 | 41.57833 | 45.06633 | 3756 ft | 203 kts | 317° |
| 2026-04-23 19:06 | 41.58847 | 45.05342 | 3492 ft | 199 kts | 318° |
| 2026-04-23 19:07 | 41.59808 | 45.04120 | 3249 ft | 187 kts | 318° |
| 2026-04-23 19:07 | 41.60704 | 45.02980 | 3010 ft | 168 kts | 319° |
| 2026-04-23 19:07 | 41.61508 | 45.01961 | 2793 ft | 151 kts | 317° |
| 2026-04-23 19:07 | 41.62260 | 45.00968 | 2588 ft | 151 kts | 317° |
| 2026-04-23 19:08 | 41.63017 | 45.00039 | 2362 ft | 145 kts | 319° |
| 2026-04-23 19:08 | 41.63728 | 44.99121 | 2124 ft | 140 kts | 316° |
| 2026-04-23 19:08 | 41.64427 | 44.98246 | 1884 ft | 136 kts | 317° |
| 2026-04-23 19:08 | 41.65096 | 44.97387 | 1724 ft | 132 kts | 319° |
| 2026-04-23 19:09 | 41.65766 | 44.96549 | 1570 ft | 130 kts | 317° |
| 2026-04-23 19:09 | 41.66395 | 44.95764 | 1522 ft | 110 kts | 317° |
| 2026-04-23 19:09 | 41.66844 | 44.95201 | 1525 ft | 67 kts | 317° |
| 2026-04-23 19:09 | 41.67106 | 44.94872 | 1525 ft | 41 kts | 316° |
| 2026-04-23 19:10 | 41.67289 | 44.94643 | 1524 ft | 32 kts | 316° |
| 2026-04-23 19:10 | 41.67429 | 44.94467 | 1522 ft | 19 kts | 317° |
| 2026-04-23 19:10 | 41.67533 | 44.94452 | 1523 ft | 10 kts | 49° |
| 2026-04-23 19:10 | 41.67554 | 44.94530 | 1525 ft | 8 kts | 72° |
| 2026-04-23 19:11 | 41.67572 | 44.94603 | 1525 ft | 8 kts | 72° |
| 2026-04-23 19:11 | 41.67589 | 44.94674 | 1520 ft | 9 kts | 71° |
| 2026-04-23 19:11 | 41.67612 | 44.94767 | 1523 ft | 13 kts | 71° |
| 2026-04-23 19:11 | 41.67642 | 44.94897 | 1525 ft | 17 kts | 74° |
| 2026-04-23 19:12 | 41.67660 | 44.95041 | 1520 ft | 14 kts | 111° |
| 2026-04-23 19:12 | 41.67598 | 44.95135 | 1524 ft | 13 kts | 134° |
| 2026-04-23 19:12 | 41.67529 | 44.95234 | 1523 ft | 16 kts | 132° |
| 2026-04-23 19:12 | 41.67451 | 44.95352 | 1520 ft | 17 kts | 131° |
| 2026-04-23 19:13 | 41.67374 | 44.95472 | 1522 ft | 17 kts | 131° |
| 2026-04-23 19:13 | 41.67296 | 44.95583 | 1525 ft | 16 kts | 133° |
| 2026-04-23 19:13 | 41.67219 | 44.95689 | 1521 ft | 15 kts | 134° |
| 2026-04-23 19:13 | 41.67145 | 44.95788 | 1521 ft | 15 kts | 134° |
| 2026-04-23 19:14 | 41.67078 | 44.95889 | 1526 ft | 14 kts | 123° |
| 2026-04-23 19:14 | 41.67022 | 44.95994 | 1524 ft | 14 kts | 132° |
| 2026-04-23 19:14 | 41.66960 | 44.96085 | 1524 ft | 13 kts | 132° |
| 2026-04-23 19:14 | 41.66909 | 44.96161 | 1526 ft | 10 kts | 127° |
| 2026-04-23 19:15 | 41.66870 | 44.96222 | 1523 ft | 8 kts | 133° |
| 2026-04-23 19:15 | 41.66852 | 44.96282 | 1523 ft | 7 kts | 71° |
| 2026-04-23 19:15 | 41.66881 | 44.96326 | 1524 ft | 5 kts | 44° |
| 2026-04-23 19:15 | 41.66897 | 44.96346 | 1522 ft | 0 kts | 43° |